CheckWX is a tool to help pilots better visualize weather data.  It is not intended as a substitute for an official pre-flight weather briefing.

01:56:42 UTC

NSTU TAF
Pago Pago International Airport
Pago Pago, American Samoa
NSTU 182341Z 1900/1924 VRB06KT P6SM VCSH SCT020 BKN040 OVC100

Mar-19@
00:00 UTC

Mar-19 @ 00:00 UTC

Mar-20@
00:00 UTC

Mar-20 @ 00:00 UTC

NSTU 182341Z 1900/1924 VRB06KT P6SM VCSH SCT020 BKN040 OVC100
Wind
  • Variable at 6 KTS
Cloud Levels
  • Scattered at 2,000' AGL
  • Broken at 4,000' AGL
  • Overcast at 10,000' AGL